N2308E 74V-KEMM
Flight info
| Callsign | N2308E |
|---|---|
| Flight time | N/A |
| Altitude | 24000 |
| Route | MTU FBR ILUME |
| Aircraft | C525/L-SDFGRWY/SB1 |
Departure
| Time | N/A |
|---|---|
| Airport | 74V |
Arrival
| Time | 2026-04-25 05:26 |
|---|---|
| Airport | Kemmerer Municipal Airport (KEMM) |
| Time | Latitude | Longitude | Altitude | Speed | Heading |
|---|---|---|---|---|---|
| 2026-04-25 04:47 | 40.27771 | -110.04771 | 5136 ft | 0 kts | 264° |
| 2026-04-25 04:53 | 40.27771 | -110.04772 | 5136 ft | 0 kts | 264° |
| 2026-04-25 04:53 | 40.27774 | -110.04790 | 5137 ft | 3 kts | 316° |
| 2026-04-25 04:53 | 40.27798 | -110.04823 | 5138 ft | 6 kts | 267° |
| 2026-04-25 04:53 | 40.27793 | -110.04889 | 5141 ft | 7 kts | 262° |
| 2026-04-25 04:54 | 40.27813 | -110.04942 | 5142 ft | 8 kts | 344° |
| 2026-04-25 04:54 | 40.27864 | -110.04900 | 5140 ft | 13 kts | 85° |
| 2026-04-25 04:54 | 40.27877 | -110.04748 | 5136 ft | 20 kts | 82° |
| 2026-04-25 04:54 | 40.27896 | -110.04544 | 5132 ft | 24 kts | 83° |
| 2026-04-25 04:55 | 40.27896 | -110.04538 | 5131 ft | 24 kts | 83° |
| 2026-04-25 04:55 | 40.27907 | -110.04420 | 5127 ft | 27 kts | 83° |
| 2026-04-25 04:56 | 40.27910 | -110.04388 | 5126 ft | 28 kts | 83° |
| 2026-04-25 04:56 | 40.27935 | -110.04118 | 5119 ft | 25 kts | 81° |
| 2026-04-25 04:56 | 40.27943 | -110.03992 | 5116 ft | 3 kts | 328° |
| 2026-04-25 04:56 | 40.27942 | -110.04030 | 5117 ft | 8 kts | 265° |
| 2026-04-25 04:57 | 40.27914 | -110.04340 | 5125 ft | 61 kts | 262° |
| 2026-04-25 04:57 | 40.27846 | -110.05097 | 5146 ft | 105 kts | 263° |
| 2026-04-25 04:57 | 40.27745 | -110.06169 | 5299 ft | 125 kts | 264° |
| 2026-04-25 04:57 | 40.27636 | -110.07330 | 5636 ft | 131 kts | 261° |
| 2026-04-25 04:58 | 40.27191 | -110.08340 | 6076 ft | 133 kts | 223° |
| 2026-04-25 04:58 | 40.26331 | -110.08817 | 6473 ft | 138 kts | 194° |
| 2026-04-25 04:58 | 40.25384 | -110.08984 | 6855 ft | 139 kts | 191° |
| 2026-04-25 04:58 | 40.24435 | -110.09187 | 7230 ft | 140 kts | 198° |
| 2026-04-25 04:59 | 40.23507 | -110.09486 | 7653 ft | 137 kts | 199° |
| 2026-04-25 04:59 | 40.22578 | -110.09853 | 7989 ft | 141 kts | 204° |
| 2026-04-25 04:59 | 40.21653 | -110.10228 | 8373 ft | 141 kts | 201° |
| 2026-04-25 04:59 | 40.20660 | -110.10586 | 8717 ft | 149 kts | 201° |
| 2026-04-25 05:00 | 40.19747 | -110.11131 | 9163 ft | 143 kts | 226° |
| 2026-04-25 05:00 | 40.19265 | -110.12222 | 9520 ft | 142 kts | 267° |
| 2026-04-25 05:00 | 40.19611 | -110.13361 | 9967 ft | 143 kts | 318° |
| 2026-04-25 05:00 | 40.20593 | -110.13723 | 10295 ft | 158 kts | 352° |
| 2026-04-25 05:01 | 40.21679 | -110.13888 | 10743 ft | 154 kts | 341° |
| 2026-04-25 05:01 | 40.22717 | -110.14264 | 11097 ft | 159 kts | 336° |
| 2026-04-25 05:01 | 40.23772 | -110.14672 | 11529 ft | 159 kts | 338° |
| 2026-04-25 05:01 | 40.24859 | -110.15027 | 11918 ft | 163 kts | 341° |
| 2026-04-25 05:02 | 40.25956 | -110.15325 | 12317 ft | 164 kts | 341° |
| 2026-04-25 05:02 | 40.27082 | -110.15603 | 12728 ft | 165 kts | 342° |
| 2026-04-25 05:02 | 40.28231 | -110.15876 | 13109 ft | 168 kts | 341° |
| 2026-04-25 05:02 | 40.29385 | -110.16148 | 13506 ft | 169 kts | 341° |
| 2026-04-25 05:03 | 40.30541 | -110.16421 | 13885 ft | 171 kts | 340° |
| 2026-04-25 05:03 | 40.31705 | -110.16697 | 14262 ft | 173 kts | 340° |
| 2026-04-25 05:03 | 40.32879 | -110.16976 | 14658 ft | 173 kts | 340° |
| 2026-04-25 05:03 | 40.34082 | -110.17263 | 15049 ft | 174 kts | 340° |
| 2026-04-25 05:04 | 40.35263 | -110.17544 | 15447 ft | 174 kts | 339° |
| 2026-04-25 05:04 | 40.36431 | -110.17817 | 15907 ft | 168 kts | 339° |
| 2026-04-25 05:04 | 40.37581 | -110.18093 | 16222 ft | 170 kts | 339° |
| 2026-04-25 05:04 | 40.38756 | -110.18377 | 16540 ft | 173 kts | 339° |
| 2026-04-25 05:05 | 40.39930 | -110.18658 | 16928 ft | 171 kts | 339° |
| 2026-04-25 05:05 | 40.41105 | -110.18938 | 17259 ft | 172 kts | 339° |
| 2026-04-25 05:05 | 40.42284 | -110.19221 | 17588 ft | 174 kts | 339° |
| 2026-04-25 05:05 | 40.43469 | -110.19505 | 17904 ft | 175 kts | 338° |
| 2026-04-25 05:06 | 40.44661 | -110.19791 | 18240 ft | 175 kts | 339° |
| 2026-04-25 05:06 | 40.45850 | -110.20073 | 18601 ft | 174 kts | 339° |
| 2026-04-25 05:06 | 40.47030 | -110.20354 | 18956 ft | 172 kts | 338° |
| 2026-04-25 05:06 | 40.48219 | -110.20641 | 19242 ft | 175 kts | 338° |
| 2026-04-25 05:07 | 40.49406 | -110.20924 | 19599 ft | 173 kts | 338° |
| 2026-04-25 05:07 | 40.50610 | -110.21214 | 19897 ft | 175 kts | 338° |
| 2026-04-25 05:07 | 40.51792 | -110.21497 | 20203 ft | 175 kts | 338° |
| 2026-04-25 05:07 | 40.52987 | -110.21782 | 20542 ft | 173 kts | 338° |
| 2026-04-25 05:08 | 40.54181 | -110.22070 | 20810 ft | 176 kts | 338° |
| 2026-04-25 05:08 | 40.55386 | -110.22360 | 21136 ft | 175 kts | 338° |
| 2026-04-25 05:08 | 40.56589 | -110.22649 | 21401 ft | 177 kts | 338° |
| 2026-04-25 05:08 | 40.57790 | -110.22936 | 21711 ft | 176 kts | 338° |
| 2026-04-25 05:09 | 40.58997 | -110.23226 | 21995 ft | 177 kts | 338° |
| 2026-04-25 05:09 | 40.60208 | -110.23516 | 22333 ft | 174 kts | 338° |
| 2026-04-25 05:09 | 40.61398 | -110.23802 | 22576 ft | 177 kts | 338° |
| 2026-04-25 05:09 | 40.62618 | -110.24098 | 22853 ft | 177 kts | 338° |
| 2026-04-25 05:10 | 40.63828 | -110.24389 | 23117 ft | 178 kts | 338° |
| 2026-04-25 05:10 | 40.65044 | -110.24680 | 23430 ft | 176 kts | 338° |
| 2026-04-25 05:10 | 40.66264 | -110.24975 | 23651 ft | 179 kts | 338° |
| 2026-04-25 05:10 | 40.67478 | -110.25268 | 23883 ft | 181 kts | 338° |
| 2026-04-25 05:11 | 40.68760 | -110.25586 | 23940 ft | 193 kts | 338° |
| 2026-04-25 05:11 | 40.70122 | -110.25925 | 23949 ft | 208 kts | 339° |
| 2026-04-25 05:11 | 40.71604 | -110.26289 | 23941 ft | 223 kts | 340° |
| 2026-04-25 05:12 | 40.74860 | -110.27075 | 23937 ft | 253 kts | 341° |
| 2026-04-25 05:12 | 40.76614 | -110.27505 | 23927 ft | 266 kts | 341° |
| 2026-04-25 05:12 | 40.78492 | -110.27969 | 23925 ft | 278 kts | 341° |
| 2026-04-25 05:12 | 40.80436 | -110.28441 | 23923 ft | 289 kts | 342° |
| 2026-04-25 05:13 | 40.82441 | -110.28921 | 23915 ft | 299 kts | 342° |
| 2026-04-25 05:13 | 40.84517 | -110.29418 | 23910 ft | 308 kts | 342° |
| 2026-04-25 05:13 | 40.86639 | -110.29925 | 23901 ft | 316 kts | 342° |
| 2026-04-25 05:13 | 40.88824 | -110.30448 | 23895 ft | 323 kts | 343° |
| 2026-04-25 05:14 | 40.91062 | -110.30988 | 23687 ft | 336 kts | 343° |
| 2026-04-25 05:14 | 40.93378 | -110.31548 | 23253 ft | 336 kts | 342° |
| 2026-04-25 05:14 | 40.95669 | -110.32097 | 22819 ft | 335 kts | 342° |
| 2026-04-25 05:15 | 41.00222 | -110.33190 | 21956 ft | 334 kts | 342° |
| 2026-04-25 05:15 | 41.02517 | -110.33746 | 21511 ft | 334 kts | 342° |
| 2026-04-25 05:15 | 41.04789 | -110.34301 | 21087 ft | 335 kts | 342° |
| 2026-04-25 05:15 | 41.07087 | -110.34862 | 20655 ft | 335 kts | 342° |
| 2026-04-25 05:16 | 41.09373 | -110.35422 | 20225 ft | 335 kts | 342° |
| 2026-04-25 05:16 | 41.11668 | -110.35983 | 19790 ft | 335 kts | 342° |
| 2026-04-25 05:16 | 41.13965 | -110.36545 | 19357 ft | 335 kts | 342° |
| 2026-04-25 05:16 | 41.16256 | -110.37104 | 18926 ft | 335 kts | 342° |
| 2026-04-25 05:17 | 41.18542 | -110.37663 | 18500 ft | 334 kts | 342° |
| 2026-04-25 05:17 | 41.20824 | -110.38222 | 18075 ft | 334 kts | 342° |
| 2026-04-25 05:17 | 41.23085 | -110.38775 | 17655 ft | 334 kts | 342° |
| 2026-04-25 05:17 | 41.25381 | -110.39338 | 17232 ft | 333 kts | 342° |
| 2026-04-25 05:18 | 41.27650 | -110.39895 | 16819 ft | 332 kts | 342° |
| 2026-04-25 05:18 | 41.29898 | -110.40444 | 16413 ft | 330 kts | 342° |
| 2026-04-25 05:18 | 41.32152 | -110.40994 | 16013 ft | 328 kts | 342° |
| 2026-04-25 05:18 | 41.34396 | -110.41550 | 15582 ft | 325 kts | 342° |
| 2026-04-25 05:19 | 41.36583 | -110.42091 | 15160 ft | 323 kts | 342° |
| 2026-04-25 05:19 | 41.38804 | -110.42646 | 14733 ft | 321 kts | 341° |
| 2026-04-25 05:19 | 41.40973 | -110.43280 | 14311 ft | 319 kts | 340° |
| 2026-04-25 05:19 | 41.43111 | -110.43964 | 13885 ft | 316 kts | 337° |
| 2026-04-25 05:20 | 41.45186 | -110.44881 | 13454 ft | 311 kts | 334° |
| 2026-04-25 05:20 | 41.47183 | -110.45845 | 13019 ft | 306 kts | 334° |
| 2026-04-25 05:20 | 41.49173 | -110.46801 | 12595 ft | 303 kts | 335° |
| 2026-04-25 05:20 | 41.51155 | -110.47725 | 12160 ft | 299 kts | 336° |
| 2026-04-25 05:21 | 41.53103 | -110.48616 | 11729 ft | 296 kts | 337° |
| 2026-04-25 05:21 | 41.55046 | -110.49495 | 11301 ft | 293 kts | 338° |
| 2026-04-25 05:21 | 41.56980 | -110.50369 | 10874 ft | 291 kts | 339° |
| 2026-04-25 05:21 | 41.58882 | -110.51228 | 10449 ft | 289 kts | 339° |
| 2026-04-25 05:22 | 41.60781 | -110.52088 | 10046 ft | 287 kts | 340° |
| 2026-04-25 05:22 | 41.62642 | -110.52912 | 9949 ft | 275 kts | 342° |
| 2026-04-25 05:22 | 41.64459 | -110.53412 | 9923 ft | 263 kts | 352° |
| 2026-04-25 05:22 | 41.66309 | -110.53622 | 9535 ft | 267 kts | 355° |
| 2026-04-25 05:23 | 41.68066 | -110.53767 | 9100 ft | 245 kts | 355° |
| 2026-04-25 05:23 | 41.69706 | -110.53915 | 8812 ft | 223 kts | 356° |
| 2026-04-25 05:23 | 41.71162 | -110.54045 | 8781 ft | 198 kts | 354° |
| 2026-04-25 05:23 | 41.72477 | -110.54231 | 8711 ft | 181 kts | 351° |
| 2026-04-25 05:24 | 41.73701 | -110.54447 | 8536 ft | 174 kts | 353° |
| 2026-04-25 05:24 | 41.74868 | -110.54611 | 8399 ft | 165 kts | 353° |
| 2026-04-25 05:24 | 41.75955 | -110.54780 | 8306 ft | 148 kts | 353° |
| 2026-04-25 05:24 | 41.76935 | -110.54942 | 8135 ft | 140 kts | 353° |
| 2026-04-25 05:25 | 41.77834 | -110.55080 | 7985 ft | 120 kts | 353° |
| 2026-04-25 05:25 | 41.78650 | -110.55205 | 7740 ft | 112 kts | 352° |
| 2026-04-25 05:25 | 41.79414 | -110.55344 | 7553 ft | 120 kts | 358° |
| 2026-04-25 05:25 | 41.80286 | -110.55447 | 7479 ft | 127 kts | 354° |
| 2026-04-25 05:26 | 41.81173 | -110.55585 | 7305 ft | 127 kts | 355° |
| 2026-04-25 05:26 | 41.81967 | -110.55700 | 7273 ft | 103 kts | 353° |
| 2026-04-25 05:26 | 41.82365 | -110.55759 | 7278 ft | 30 kts | 355° |
| 2026-04-25 05:26 | 41.82461 | -110.55776 | 7280 ft | 7 kts | 168° |
| 2026-04-25 05:27 | 41.82388 | -110.55764 | 7279 ft | 12 kts | 174° |
| 2026-04-25 05:27 | 41.82284 | -110.55749 | 7277 ft | 17 kts | 174° |
| 2026-04-25 05:27 | 41.82156 | -110.55730 | 7275 ft | 9 kts | 173° |
| 2026-04-25 05:27 | 41.82117 | -110.55682 | 7274 ft | 9 kts | 86° |
| 2026-04-25 05:28 | 41.82127 | -110.55599 | 7271 ft | 10 kts | 67° |
| 2026-04-25 05:28 | 41.82131 | -110.55552 | 7268 ft | 1 kts | 178° |
| 2026-04-25 05:28 | 41.82130 | -110.55552 | 7268 ft | 0 kts | 177° |